createdAt,value
2023-02-26T00:01:22.099Z,100749.56
2023-02-26T00:03:49.036Z,100755.38
2023-02-26T00:06:15.386Z,100754.31
2023-02-26T00:08:41.731Z,100758.09
2023-02-26T00:11:08.875Z,100759.91
2023-02-26T00:13:39.229Z,100762.13
2023-02-26T00:16:10.670Z,100766.53
2023-02-26T00:18:37.192Z,100774.97
2023-02-26T00:21:03.641Z,100789.66
2023-02-26T00:23:30.000Z,100796.66
2023-02-26T00:25:57.950Z,100784.09
2023-02-26T00:28:24.411Z,100789.00
2023-02-26T00:30:50.868Z,100790.72
2023-02-26T00:33:17.285Z,100794.13
2023-02-26T00:35:44.063Z,100807.38
2023-02-26T00:38:11.151Z,100808.34
2023-02-26T00:40:48.220Z,100804.75
2023-02-26T00:43:16.026Z,100813.47
2023-02-26T00:45:51.644Z,100807.97
2023-02-26T00:48:26.940Z,100804.56
2023-02-26T00:51:02.523Z,100804.63
2023-02-26T00:53:31.695Z,100808.97
2023-02-26T00:55:57.972Z,100816.06
2023-02-26T00:58:24.292Z,100818.78
2023-02-26T01:00:50.611Z,100815.59
2023-02-26T01:03:17.029Z,100829.34
2023-02-26T01:05:43.664Z,100832.19
2023-02-26T01:08:36.378Z,100825.09
2023-02-26T01:11:02.916Z,100830.09
2023-02-26T01:13:29.318Z,100833.50
2023-02-26T01:16:17.720Z,100830.03
2023-02-26T01:18:56.282Z,100834.84
2023-02-26T01:21:30.761Z,100840.50
2023-02-26T01:23:57.196Z,100848.75
2023-02-26T01:26:26.666Z,100845.03
2023-02-26T01:28:53.575Z,100846.31
2023-02-26T01:31:43.007Z,100847.09
2023-02-26T01:34:18.297Z,100859.16
2023-02-26T01:36:51.237Z,100864.38
2023-02-26T01:39:26.778Z,100873.41
2023-02-26T01:42:00.383Z,100870.31
2023-02-26T01:44:26.643Z,100873.84
2023-02-26T01:47:04.820Z,100882.19
2023-02-26T01:49:31.562Z,100886.00
2023-02-26T01:52:03.259Z,100882.53
2023-02-26T01:54:31.431Z,100881.75
2023-02-26T01:57:17.410Z,100885.53
2023-02-26T01:59:46.392Z,100887.28
2023-02-26T02:02:16.235Z,100901.56
2023-02-26T02:04:43.893Z,100902.63
2023-02-26T02:07:10.393Z,100903.69
2023-02-26T02:09:36.736Z,100908.81
2023-02-26T02:12:02.997Z,100906.16
2023-02-26T02:14:46.344Z,100919.38
2023-02-26T02:17:17.310Z,100913.63
2023-02-26T02:19:43.737Z,100918.13
2023-02-26T02:22:22.206Z,100919.56
2023-02-26T02:25:06.520Z,100921.16
2023-02-26T02:27:42.929Z,100923.69
2023-02-26T02:30:27.752Z,100940.44
2023-02-26T02:32:59.399Z,100921.47
2023-02-26T02:35:35.726Z,100928.78
2023-02-26T02:38:11.848Z,100927.56
2023-02-26T02:40:41.022Z,100934.16
2023-02-26T02:43:10.639Z,100929.38
2023-02-26T02:45:59.816Z,100932.22
2023-02-26T02:48:31.500Z,100939.53
2023-02-26T02:51:00.190Z,100939.69
2023-02-26T02:53:34.003Z,100947.09
2023-02-26T02:56:07.178Z,100954.03
2023-02-26T02:58:37.526Z,100952.25
2023-02-26T03:01:06.505Z,100964.66
2023-02-26T03:03:41.874Z,100950.03
2023-02-26T03:06:08.398Z,100969.91
2023-02-26T03:08:37.237Z,100970.44
2023-02-26T03:11:03.709Z,100977.19
2023-02-26T03:13:30.024Z,100975.91
2023-02-26T03:15:59.080Z,100973.69
2023-02-26T03:18:38.781Z,100978.56
2023-02-26T03:21:10.026Z,100986.19
2023-02-26T03:23:40.289Z,100985.41
2023-02-26T03:26:19.311Z,100981.28
2023-02-26T03:28:52.785Z,100986.31
2023-02-26T03:31:35.579Z,100996.94
2023-02-26T03:34:17.872Z,101005.19
2023-02-26T03:36:49.555Z,101002.78
2023-02-26T03:39:15.807Z,101017.88
2023-02-26T03:41:47.967Z,101013.53
2023-02-26T03:44:19.502Z,101021.41
2023-02-26T03:46:48.435Z,101023.78
2023-02-26T03:49:18.665Z,101032.69
2023-02-26T03:51:46.062Z,101042.75
2023-02-26T03:54:28.608Z,101043.88
2023-02-26T03:56:54.991Z,101045.28
2023-02-26T03:59:21.414Z,101054.19
2023-02-26T04:01:53.936Z,101062.59
2023-02-26T04:04:35.692Z,101053.91
2023-02-26T04:07:02.496Z,101063.09
2023-02-26T04:09:28.871Z,101071.19
2023-02-26T04:11:56.867Z,101069.97
2023-02-26T04:14:23.166Z,101079.78
2023-02-26T04:16:49.538Z,101075.75
2023-02-26T04:19:15.944Z,101078.03
2023-02-26T04:21:42.286Z,101084.69
2023-02-26T04:24:08.696Z,101083.66
2023-02-26T04:26:35.087Z,101091.59
2023-02-26T04:29:01.464Z,101088.34
2023-02-26T04:31:27.830Z,101100.16
2023-02-26T04:33:54.667Z,101109.84
2023-02-26T04:36:21.059Z,101107.44
2023-02-26T04:38:47.526Z,101118.28
2023-02-26T04:41:13.910Z,101116.59
2023-02-26T04:43:40.214Z,101115.56
2023-02-26T04:46:06.569Z,101107.66
2023-02-26T04:48:32.916Z,101111.88
2023-02-26T04:50:59.558Z,101118.31
2023-02-26T04:53:25.857Z,101115.91
2023-02-26T04:55:52.575Z,101118.91
2023-02-26T04:58:20.118Z,101129.13
2023-02-26T05:00:50.318Z,101125.69
2023-02-26T05:03:16.802Z,101131.09
2023-02-26T05:05:43.475Z,101144.81
2023-02-26T05:08:10.098Z,101142.69
2023-02-26T05:10:36.510Z,101140.38
2023-02-26T05:13:02.823Z,101139.84
2023-02-26T05:15:29.124Z,101151.56
2023-02-26T05:17:55.490Z,101155.72
2023-02-26T05:20:21.949Z,101163.66
2023-02-26T05:22:48.438Z,101148.03
2023-02-26T05:25:14.772Z,101156.91
2023-02-26T05:27:42.444Z,101170.38
2023-02-26T05:30:09.546Z,101160.69
2023-02-26T05:32:36.216Z,101178.47
2023-02-26T05:35:02.485Z,101187.56
2023-02-26T05:37:28.792Z,101169.94
2023-02-26T05:39:55.075Z,101176.38
2023-02-26T05:42:21.368Z,101181.53
2023-02-26T05:44:47.648Z,101179.41
2023-02-26T05:47:14.000Z,101190.84
2023-02-26T05:49:40.310Z,101192.97
2023-02-26T05:52:06.589Z,101202.72
2023-02-26T05:54:32.896Z,101215.16
2023-02-26T05:56:59.268Z,101211.72
2023-02-26T05:59:25.804Z,101210.84
2023-02-26T06:01:52.209Z,101222.66
2023-02-26T06:04:18.526Z,101218.75
2023-02-26T06:06:45.004Z,101228.28
2023-02-26T06:09:11.534Z,101228.88
2023-02-26T06:11:39.565Z,101248.84
2023-02-26T06:14:06.207Z,101237.25
2023-02-26T06:16:32.872Z,101248.81
2023-02-26T06:18:59.338Z,101242.44
2023-02-26T06:21:25.624Z,101259.19
2023-02-26T06:23:51.912Z,101249.50
2023-02-26T06:26:18.211Z,101267.06
2023-02-26T06:28:44.889Z,101264.16
2023-02-26T06:31:11.203Z,101261.75
2023-02-26T06:33:37.493Z,101278.53
2023-02-26T06:36:03.994Z,101284.13
2023-02-26T06:38:30.298Z,101281.28
2023-02-26T06:40:56.607Z,101284.75
2023-02-26T06:43:22.939Z,101293.06
2023-02-26T06:45:49.558Z,101290.16
2023-02-26T06:48:16.291Z,101299.34
2023-02-26T06:50:42.850Z,101300.47
2023-02-26T06:53:09.186Z,101306.41
2023-02-26T06:55:35.524Z,101306.63
2023-02-26T06:58:01.905Z,101311.75
2023-02-26T07:00:28.238Z,101311.53
2023-02-26T07:02:54.539Z,101312.31
2023-02-26T07:05:21.153Z,101325.50
2023-02-26T07:07:47.914Z,101330.91
2023-02-26T07:10:14.210Z,101326.84
2023-02-26T07:12:40.589Z,101330.63
2023-02-26T07:15:07.169Z,101330.94
2023-02-26T07:17:33.467Z,101337.97
2023-02-26T07:20:06.080Z,101343.09
2023-02-26T07:22:33.291Z,101359.78
2023-02-26T07:25:00.342Z,101353.88
2023-02-26T07:27:26.698Z,101367.38
2023-02-26T07:29:53.004Z,101371.19
2023-02-26T07:32:19.368Z,101377.09
2023-02-26T07:34:45.691Z,101377.63
2023-02-26T07:37:12.079Z,101385.72
2023-02-26T07:39:38.408Z,101387.59
2023-02-26T07:42:05.144Z,101393.25
2023-02-26T07:44:31.564Z,101394.38
2023-02-26T07:46:57.833Z,101401.09
2023-02-26T07:49:25.180Z,101399.72
2023-02-26T07:51:51.520Z,101411.06
2023-02-26T07:54:17.984Z,101405.44
2023-02-26T07:56:44.765Z,101410.84
2023-02-26T07:59:11.510Z,101424.28
2023-02-26T08:01:38.064Z,101414.06
2023-02-26T08:04:04.862Z,101419.19
2023-02-26T08:06:31.229Z,101418.63
2023-02-26T08:08:57.563Z,101425.88
2023-02-26T08:11:23.931Z,101419.72
2023-02-26T08:13:50.294Z,101429.69
2023-02-26T08:16:16.594Z,101425.94
2023-02-26T08:18:42.904Z,101436.19
2023-02-26T08:21:09.239Z,101448.81
2023-02-26T08:23:35.545Z,101449.06
2023-02-26T08:26:06.121Z,101456.06
2023-02-26T08:28:32.946Z,101451.56
2023-02-26T08:31:00.081Z,101461.00
2023-02-26T08:33:26.542Z,101461.47
2023-02-26T08:35:53.651Z,101466.09
2023-02-26T08:38:20.176Z,101474.38
2023-02-26T08:40:49.260Z,101466.84
2023-02-26T08:43:15.801Z,101470.66
2023-02-26T08:45:42.110Z,101469.59
2023-02-26T08:48:10.678Z,101487.34
2023-02-26T08:50:37.278Z,101488.09
2023-02-26T08:53:03.652Z,101490.28
2023-02-26T08:55:30.397Z,101499.53
2023-02-26T08:57:56.699Z,101481.22
2023-02-26T09:00:23.074Z,101498.13
2023-02-26T09:02:49.742Z,101511.06
2023-02-26T09:05:16.501Z,101515.91
2023-02-26T09:07:43.279Z,101502.50
2023-02-26T09:10:10.441Z,101504.16
2023-02-26T09:12:37.691Z,101515.50
2023-02-26T09:15:04.733Z,101511.22
2023-02-26T09:17:31.185Z,101521.19
2023-02-26T09:19:57.725Z,101529.00
2023-02-26T09:22:24.083Z,101538.97
2023-02-26T09:24:50.774Z,101544.38
2023-02-26T09:27:17.580Z,101551.63
2023-02-26T09:29:43.932Z,101544.59
2023-02-26T09:32:10.342Z,101553.22
2023-02-26T09:34:37.595Z,101558.59
2023-02-26T09:37:05.001Z,101557.78
2023-02-26T09:39:31.527Z,101556.69
2023-02-26T09:42:00.343Z,101561.28
2023-02-26T09:44:28.356Z,101557.63
2023-02-26T09:47:02.246Z,101550.03
2023-02-26T09:49:28.548Z,101554.38
2023-02-26T09:51:58.500Z,101574.03
2023-02-26T09:54:26.955Z,101565.91
2023-02-26T09:56:55.128Z,101565.63
2023-02-26T09:59:21.496Z,101565.38
2023-02-26T10:02:06.650Z,101569.97
2023-02-26T10:04:35.820Z,101589.41
2023-02-26T10:07:31.694Z,101581.88
2023-02-26T10:10:10.183Z,101598.88
2023-02-26T10:12:40.292Z,101582.13
2023-02-26T10:15:07.398Z,101596.69
2023-02-26T10:17:45.318Z,101609.59
2023-02-26T10:20:15.970Z,101598.34
2023-02-26T10:22:52.193Z,101601.84
2023-02-26T10:25:23.427Z,101615.56
2023-02-26T10:27:53.463Z,101610.75
2023-02-26T10:30:43.956Z,101622.34
2023-02-26T10:33:17.269Z,101621.50
2023-02-26T10:35:54.180Z,101631.25
2023-02-26T10:38:24.748Z,101625.88
2023-02-26T10:40:55.383Z,101632.13
2023-02-26T10:43:22.885Z,101628.06
2023-02-26T10:46:07.823Z,101639.22
2023-02-26T10:48:34.129Z,101636.44
2023-02-26T10:51:01.539Z,101628.13
2023-02-26T10:53:30.756Z,101643.16
2023-02-26T10:56:16.045Z,101641.81
2023-02-26T10:58:42.445Z,101645.06
2023-02-26T11:01:16.016Z,101644.84
2023-02-26T11:03:44.317Z,101653.66
2023-02-26T11:06:11.942Z,101666.28
2023-02-26T11:08:43.531Z,101656.06
2023-02-26T11:11:09.914Z,101666.88
2023-02-26T11:13:37.718Z,101663.16
2023-02-26T11:16:13.170Z,101667.72
2023-02-26T11:18:41.328Z,101664.19
2023-02-26T11:21:08.767Z,101676.28
2023-02-26T11:23:35.699Z,101693.22
2023-02-26T11:26:13.945Z,101681.84
2023-02-26T11:28:47.699Z,101680.75
2023-02-26T11:31:17.415Z,101676.59
2023-02-26T11:33:45.093Z,101670.22
2023-02-26T11:36:14.133Z,101665.63
2023-02-26T11:38:40.933Z,101687.41
2023-02-26T11:41:07.562Z,101677.41
2023-02-26T11:43:36.528Z,101689.81
2023-02-26T11:46:03.345Z,101690.06
2023-02-26T11:48:37.044Z,101694.34
2023-02-26T11:51:04.821Z,101710.03
2023-02-26T11:53:33.782Z,101705.22
2023-02-26T11:56:01.871Z,101686.69
2023-02-26T11:58:29.318Z,101714.50
2023-02-26T12:00:58.549Z,101702.38
2023-02-26T12:03:29.399Z,101697.81
2023-02-26T12:05:57.267Z,101704.53
2023-02-26T12:08:30.063Z,101703.13
2023-02-26T12:11:08.281Z,101707.56
2023-02-26T12:13:58.238Z,101708.38
2023-02-26T12:16:27.673Z,101719.47
2023-02-26T12:19:01.784Z,101716.50
2023-02-26T12:21:54.292Z,101721.88
2023-02-26T12:24:23.352Z,101707.72
2023-02-26T12:27:03.531Z,101712.16
2023-02-26T12:29:47.766Z,101734.56
2023-02-26T12:32:23.400Z,101728.13
2023-02-26T12:34:55.784Z,101759.63
2023-02-26T12:37:40.902Z,101745.25
2023-02-26T12:40:30.719Z,101734.53
2023-02-26T12:43:06.982Z,101749.91
2023-02-26T12:45:47.676Z,101739.72
2023-02-26T12:48:13.939Z,101757.06
2023-02-26T12:50:55.514Z,101760.91
2023-02-26T12:53:40.551Z,101777.59
2023-02-26T12:56:12.972Z,101781.16
2023-02-26T12:58:42.261Z,101775.19
2023-02-26T13:01:11.745Z,101795.63
2023-02-26T13:03:44.998Z,101783.78
2023-02-26T13:06:32.598Z,101784.06
2023-02-26T13:08:58.958Z,101797.13
2023-02-26T13:11:25.664Z,101799.56
2023-02-26T13:13:59.888Z,101800.09
2023-02-26T13:16:39.183Z,101824.06
2023-02-26T13:19:13.348Z,101825.34
2023-02-26T13:21:43.505Z,101831.84
2023-02-26T13:24:21.679Z,101829.06
2023-02-26T13:26:48.901Z,101828.25
2023-02-26T13:29:17.371Z,101844.47
2023-02-26T13:31:48.517Z,101843.16
2023-02-26T13:34:21.757Z,101842.19
2023-02-26T13:36:48.783Z,101839.50
2023-02-26T13:39:24.767Z,101842.13
2023-02-26T13:42:11.336Z,101851.03
2023-02-26T13:44:52.560Z,101832.50
2023-02-26T13:47:18.879Z,101844.06
2023-02-26T13:49:49.013Z,101846.13
2023-02-26T13:52:28.868Z,101856.31
2023-02-26T13:54:55.712Z,101833.31
2023-02-26T13:57:25.838Z,101836.91
2023-02-26T13:59:54.366Z,101851.16
2023-02-26T14:02:20.650Z,101839.91
2023-02-26T14:04:51.617Z,101848.56
2023-02-26T14:07:37.857Z,101848.00
2023-02-26T14:10:14.594Z,101856.31
2023-02-26T14:12:44.326Z,101837.66
2023-02-26T14:15:13.698Z,101856.00
2023-02-26T14:17:41.603Z,101841.16
2023-02-26T14:20:17.022Z,101849.88
2023-02-26T14:22:46.716Z,101846.94
2023-02-26T14:25:12.976Z,101831.94
2023-02-26T14:27:40.770Z,101834.34
2023-02-26T14:30:10.069Z,101841.66
2023-02-26T14:32:56.150Z,101839.25
2023-02-26T14:35:28.073Z,101846.50
2023-02-26T14:38:06.168Z,101859.59
2023-02-26T14:40:37.196Z,101861.56
2023-02-26T14:43:05.176Z,101836.81
2023-02-26T14:45:35.036Z,101842.97
2023-02-26T14:48:03.593Z,101849.50
2023-02-26T14:50:37.004Z,101846.81
2023-02-26T14:53:06.412Z,101839.00
2023-02-26T14:55:59.076Z,101851.69
2023-02-26T14:58:28.392Z,101861.66
2023-02-26T15:00:57.860Z,101849.47
2023-02-26T15:03:27.267Z,101843.25
2023-02-26T15:05:53.548Z,101874.28
2023-02-26T15:08:25.917Z,101856.25
2023-02-26T15:10:52.272Z,101864.53
2023-02-26T15:13:21.559Z,101855.91
2023-02-26T15:16:06.806Z,101866.78
2023-02-26T15:18:36.111Z,101853.81
2023-02-26T15:21:05.408Z,101854.38
2023-02-26T15:23:37.852Z,101866.75
2023-02-26T15:26:05.340Z,101855.75
2023-02-26T15:28:36.729Z,101852.88
2023-02-26T15:31:06.119Z,101855.25
2023-02-26T15:33:33.283Z,101856.81
2023-02-26T15:36:00.605Z,101878.97
2023-02-26T15:38:27.117Z,101869.50
2023-02-26T15:40:54.729Z,101880.56
2023-02-26T15:43:23.830Z,101886.56
2023-02-26T15:45:52.284Z,101887.06
2023-02-26T15:48:25.694Z,101879.00
2023-02-26T15:50:58.832Z,101874.16
2023-02-26T15:53:32.918Z,101882.22
2023-02-26T15:56:01.683Z,101860.16
2023-02-26T15:58:34.847Z,101870.16
2023-02-26T16:01:02.116Z,101862.59
2023-02-26T16:03:30.480Z,101873.69
2023-02-26T16:05:58.121Z,101868.56
2023-02-26T16:08:24.582Z,101876.69
2023-02-26T16:10:52.041Z,101888.28
2023-02-26T16:13:24.335Z,101882.38
2023-02-26T16:15:50.824Z,101910.44
2023-02-26T16:18:22.805Z,101880.78
2023-02-26T16:20:52.364Z,101889.97
2023-02-26T16:23:23.352Z,101883.22
2023-02-26T16:26:00.743Z,101906.50
2023-02-26T16:28:30.787Z,101880.28
2023-02-26T16:30:59.333Z,101883.50
2023-02-26T16:33:26.528Z,101901.38
2023-02-26T16:35:54.647Z,101902.47
2023-02-26T16:38:22.376Z,101903.00
2023-02-26T16:40:56.385Z,101908.06
2023-02-26T16:43:23.296Z,101914.06
2023-02-26T16:45:50.834Z,101910.50
2023-02-26T16:48:27.382Z,101918.41
2023-02-26T16:50:57.097Z,101915.41
2023-02-26T16:53:25.091Z,101918.09
2023-02-26T16:55:53.589Z,101926.78
2023-02-26T16:58:21.873Z,101927.31
2023-02-26T17:00:51.094Z,101934.13
2023-02-26T17:03:20.038Z,101930.31
2023-02-26T17:06:01.934Z,101928.16
2023-02-26T17:08:32.190Z,101938.16
2023-02-26T17:11:01.842Z,101934.34
2023-02-26T17:13:29.586Z,101943.31
2023-02-26T17:15:59.219Z,101943.34
2023-02-26T17:18:25.811Z,101933.31
2023-02-26T17:20:52.461Z,101943.59
2023-02-26T17:23:19.493Z,101939.78
2023-02-26T17:25:47.380Z,101937.59
2023-02-26T17:28:17.434Z,101934.84
2023-02-26T17:30:43.821Z,101938.06
2023-02-26T17:33:12.772Z,101936.66
2023-02-26T17:35:39.608Z,101938.50
2023-02-26T17:38:06.384Z,101934.09
2023-02-26T17:40:36.539Z,101923.69
2023-02-26T17:43:04.613Z,101932.34
2023-02-26T17:45:32.421Z,101934.97
2023-02-26T17:47:58.791Z,101939.06
2023-02-26T17:50:40.381Z,101930.63
2023-02-26T17:53:07.651Z,101923.53
2023-02-26T17:55:35.741Z,101921.19
2023-02-26T17:58:02.057Z,101934.50
2023-02-26T18:00:28.683Z,101925.47
2023-02-26T18:02:55.038Z,101924.66
2023-02-26T18:05:21.502Z,101932.69
2023-02-26T18:07:48.704Z,101924.19
2023-02-26T18:10:21.365Z,101922.63
2023-02-26T18:12:48.736Z,101932.13
2023-02-26T18:15:16.000Z,101913.25
2023-02-26T18:17:43.111Z,101930.47
2023-02-26T18:20:15.770Z,101928.94
2023-02-26T18:22:42.081Z,101928.91
2023-02-26T18:25:09.454Z,101924.88
2023-02-26T18:27:35.845Z,101924.81
2023-02-26T18:30:04.359Z,101926.03
2023-02-26T18:32:30.790Z,101916.13
2023-02-26T18:34:57.178Z,101912.59
2023-02-26T18:37:27.118Z,101909.00
2023-02-26T18:39:53.782Z,101913.00
2023-02-26T18:42:20.162Z,101916.00
2023-02-26T18:44:46.746Z,101913.31
2023-02-26T18:47:13.227Z,101914.53
2023-02-26T18:49:39.528Z,101904.03
2023-02-26T18:52:05.878Z,101910.59
2023-02-26T18:54:32.202Z,101922.44
2023-02-26T18:56:58.801Z,101926.66
2023-02-26T18:59:25.224Z,101928.25
2023-02-26T19:01:51.715Z,101928.47
2023-02-26T19:04:18.046Z,101920.13
2023-02-26T19:06:44.398Z,101918.22
2023-02-26T19:09:10.792Z,101926.63
2023-02-26T19:11:38.120Z,101925.06
2023-02-26T19:14:04.936Z,101930.09
2023-02-26T19:16:35.163Z,101924.16
2023-02-26T19:19:01.906Z,101924.97
2023-02-26T19:21:28.422Z,101930.84
2023-02-26T19:23:54.840Z,101931.94
2023-02-26T19:26:22.734Z,101933.84
2023-02-26T19:28:49.051Z,101929.19
2023-02-26T19:31:16.773Z,101934.56
2023-02-26T19:33:43.322Z,101933.66
2023-02-26T19:36:09.839Z,101933.91
2023-02-26T19:38:36.173Z,101931.97
2023-02-26T19:41:02.530Z,101935.97
2023-02-26T19:43:29.145Z,101950.22
2023-02-26T19:45:56.100Z,101940.31
2023-02-26T19:48:22.752Z,101945.50
2023-02-26T19:50:52.354Z,101948.41
2023-02-26T19:53:19.438Z,101949.25
2023-02-26T19:55:45.799Z,101948.28
2023-02-26T19:58:14.045Z,101961.31
2023-02-26T20:00:40.485Z,101956.72
2023-02-26T20:03:07.060Z,101957.41
2023-02-26T20:05:34.900Z,101962.59
2023-02-26T20:08:01.752Z,101962.53
2023-02-26T20:10:29.134Z,101963.66
2023-02-26T20:12:58.079Z,101966.19
2023-02-26T20:15:24.764Z,101966.00
2023-02-26T20:17:51.098Z,101966.88
2023-02-26T20:20:17.642Z,101966.88
2023-02-26T20:22:43.991Z,101977.56
2023-02-26T20:25:10.357Z,101976.16
2023-02-26T20:27:36.673Z,101984.75
2023-02-26T20:30:03.867Z,101991.31
2023-02-26T20:32:30.319Z,101986.00
2023-02-26T20:34:56.799Z,101993.31
2023-02-26T20:37:23.104Z,101996.41
2023-02-26T20:39:49.429Z,101999.78
2023-02-26T20:42:16.859Z,101992.13
2023-02-26T20:44:43.185Z,101998.06
2023-02-26T20:47:09.722Z,102000.09
2023-02-26T20:49:36.023Z,102003.56
2023-02-26T20:52:02.438Z,102008.56
2023-02-26T20:54:28.800Z,102005.09
2023-02-26T20:56:55.223Z,102006.75
2023-02-26T20:59:21.653Z,101998.69
2023-02-26T21:01:48.260Z,101999.25
2023-02-26T21:04:14.735Z,101997.63
2023-02-26T21:06:41.284Z,102000.84
2023-02-26T21:09:10.874Z,102006.38
2023-02-26T21:11:38.320Z,102001.44
2023-02-26T21:14:05.739Z,101999.16
2023-02-26T21:16:32.291Z,102002.47
2023-02-26T21:19:00.259Z,102005.84
2023-02-26T21:21:26.658Z,102009.63
2023-02-26T21:23:53.215Z,102006.69
2023-02-26T21:26:20.310Z,102013.72
2023-02-26T21:28:48.298Z,102011.19
2023-02-26T21:31:15.404Z,102012.28
2023-02-26T21:33:41.756Z,102014.94
2023-02-26T21:36:08.937Z,102016.91
2023-02-26T21:38:35.337Z,102005.41
2023-02-26T21:41:01.633Z,102008.38
2023-02-26T21:43:27.954Z,102015.19
2023-02-26T21:45:54.325Z,102024.44
2023-02-26T21:48:20.825Z,102017.81
2023-02-26T21:50:48.020Z,102015.31
2023-02-26T21:53:14.315Z,102010.44
2023-02-26T21:55:40.788Z,102025.50
2023-02-26T21:58:07.106Z,102023.28
2023-02-26T22:00:33.517Z,102027.53
2023-02-26T22:02:59.969Z,102026.94
2023-02-26T22:05:26.339Z,102022.16
2023-02-26T22:07:52.874Z,102027.47
2023-02-26T22:10:19.286Z,102032.69
2023-02-26T22:12:45.688Z,102024.44
2023-02-26T22:15:12.165Z,102026.28
2023-02-26T22:17:38.472Z,102030.09
2023-02-26T22:20:09.613Z,102020.72
2023-02-26T22:22:37.096Z,102027.09
2023-02-26T22:25:05.556Z,102030.41
2023-02-26T22:27:32.354Z,102035.97
2023-02-26T22:29:58.772Z,102035.72
2023-02-26T22:32:25.653Z,102031.81
2023-02-26T22:34:52.308Z,102038.59
2023-02-26T22:37:19.078Z,102033.69
2023-02-26T22:39:45.467Z,102046.72
2023-02-26T22:42:11.911Z,102046.13
2023-02-26T22:44:38.348Z,102039.50
2023-02-26T22:47:04.758Z,102048.56
2023-02-26T22:49:31.132Z,102044.25
2023-02-26T22:51:57.476Z,102037.84
2023-02-26T22:54:23.894Z,102046.34
2023-02-26T22:56:50.367Z,102049.88
2023-02-26T22:59:16.665Z,102054.53
2023-02-26T23:01:43.392Z,102057.28
2023-02-26T23:04:10.805Z,102049.91
2023-02-26T23:06:37.262Z,102059.56
2023-02-26T23:09:05.003Z,102065.63
2023-02-26T23:11:31.788Z,102066.00
2023-02-26T23:13:58.102Z,102060.81
2023-02-26T23:16:24.423Z,102062.97
2023-02-26T23:18:50.783Z,102071.31
2023-02-26T23:21:17.196Z,102059.53
2023-02-26T23:23:43.962Z,102067.63
2023-02-26T23:26:10.442Z,102069.19
2023-02-26T23:28:36.840Z,102063.59
2023-02-26T23:31:05.311Z,102064.72
2023-02-26T23:33:31.874Z,102070.53
2023-02-26T23:35:58.168Z,102070.19
2023-02-26T23:38:24.476Z,102063.63
2023-02-26T23:40:50.904Z,102066.91
2023-02-26T23:43:17.184Z,102069.47
2023-02-26T23:45:44.058Z,102067.25
2023-02-26T23:48:10.419Z,102071.47
2023-02-26T23:50:36.782Z,102069.59
2023-02-26T23:53:03.101Z,102076.44
2023-02-26T23:55:29.391Z,102063.50
2023-02-26T23:57:55.777Z,102068.75
